sensor_id;sensor_type;location;lat;lon;timestamp;temperature;humidity
59881;DHT22;45751;51.380;10.326;2022-11-15T00:00:07;6.80;99.90
59881;DHT22;45751;51.380;10.326;2022-11-15T00:02:55;6.80;99.90
59881;DHT22;45751;51.380;10.326;2022-11-15T00:05:46;6.80;99.90
59881;DHT22;45751;51.380;10.326;2022-11-15T00:08:32;6.80;99.90
59881;DHT22;45751;51.380;10.326;2022-11-15T00:11:19;6.80;99.90
59881;DHT22;45751;51.380;10.326;2022-11-15T00:14:04;6.90;99.90
59881;DHT22;45751;51.380;10.326;2022-11-15T00:16:51;6.90;99.90
59881;DHT22;45751;51.380;10.326;2022-11-15T00:19:38;7.00;99.90
59881;DHT22;45751;51.380;10.326;2022-11-15T00:22:32;7.00;99.90
59881;DHT22;45751;51.380;10.326;2022-11-15T00:25:19;7.00;99.90
59881;DHT22;45751;51.380;10.326;2022-11-15T00:28:04;7.00;99.90
59881;DHT22;45751;51.380;10.326;2022-11-15T00:30:53;7.00;99.90
59881;DHT22;45751;51.380;10.326;2022-11-15T00:33:43;7.00;99.90
59881;DHT22;45751;51.380;10.326;2022-11-15T00:36:35;7.00;99.90
59881;DHT22;45751;51.380;10.326;2022-11-15T00:39:20;6.90;99.90
59881;DHT22;45751;51.380;10.326;2022-11-15T00:42:09;6.90;99.90
59881;DHT22;45751;51.380;10.326;2022-11-15T00:44:54;6.90;99.90
59881;DHT22;45751;51.380;10.326;2022-11-15T00:47:44;6.90;99.90
59881;DHT22;45751;51.380;10.326;2022-11-15T00:50:30;6.80;99.90
59881;DHT22;45751;51.380;10.326;2022-11-15T00:53:18;6.90;99.90
59881;DHT22;45751;51.380;10.326;2022-11-15T00:56:03;6.90;99.90
59881;DHT22;45751;51.380;10.326;2022-11-15T00:58:52;6.90;99.90
59881;DHT22;45751;51.380;10.326;2022-11-15T01:01:38;6.90;99.90
59881;DHT22;45751;51.380;10.326;2022-11-15T01:04:23;6.90;99.90
59881;DHT22;45751;51.380;10.326;2022-11-15T01:07:08;6.90;99.90
59881;DHT22;45751;51.380;10.326;2022-11-15T01:09:56;7.00;99.90
59881;DHT22;45751;51.380;10.326;2022-11-15T01:12:42;7.00;99.90
59881;DHT22;45751;51.380;10.326;2022-11-15T01:15:27;7.00;99.90
59881;DHT22;45751;51.380;10.326;2022-11-15T01:18:12;7.00;99.90
59881;DHT22;45751;51.380;10.326;2022-11-15T01:21:08;7.00;99.90
59881;DHT22;45751;51.380;10.326;2022-11-15T01:23:56;7.00;99.90
59881;DHT22;45751;51.380;10.326;2022-11-15T01:26:43;7.10;99.90
59881;DHT22;45751;51.380;10.326;2022-11-15T01:29:30;7.10;99.90
59881;DHT22;45751;51.380;10.326;2022-11-15T01:32:15;7.10;99.90
59881;DHT22;45751;51.380;10.326;2022-11-15T01:35:03;7.20;99.90
59881;DHT22;45751;51.380;10.326;2022-11-15T01:37:48;7.20;99.90
59881;DHT22;45751;51.380;10.326;2022-11-15T01:40:33;7.20;99.90
59881;DHT22;45751;51.380;10.326;2022-11-15T01:43:29;7.30;99.90
59881;DHT22;45751;51.380;10.326;2022-11-15T01:46:34;7.30;99.90
59881;DHT22;45751;51.380;10.326;2022-11-15T01:49:22;7.40;99.90
59881;DHT22;45751;51.380;10.326;2022-11-15T01:52:16;7.50;99.90
59881;DHT22;45751;51.380;10.326;2022-11-15T01:55:13;7.50;99.90
59881;DHT22;45751;51.380;10.326;2022-11-15T01:58:04;7.50;99.90
59881;DHT22;45751;51.380;10.326;2022-11-15T02:00:51;7.50;99.90
59881;DHT22;45751;51.380;10.326;2022-11-15T02:03:59;7.50;99.90
59881;DHT22;45751;51.380;10.326;2022-11-15T02:06:48;7.50;99.90
59881;DHT22;45751;51.380;10.326;2022-11-15T02:09:37;7.50;99.90
59881;DHT22;45751;51.380;10.326;2022-11-15T02:12:23;7.50;99.90
59881;DHT22;45751;51.380;10.326;2022-11-15T02:15:09;7.50;99.90
59881;DHT22;45751;51.380;10.326;2022-11-15T02:24:40;7.40;99.90
59881;DHT22;45751;51.380;10.326;2022-11-15T02:33:57;7.30;99.90
59881;DHT22;45751;51.380;10.326;2022-11-15T02:37:08;7.30;99.90
59881;DHT22;45751;51.380;10.326;2022-11-15T02:40:06;7.30;99.90
59881;DHT22;45751;51.380;10.326;2022-11-15T02:42:57;7.40;99.90
59881;DHT22;45751;51.380;10.326;2022-11-15T02:46:18;7.30;99.90
59881;DHT22;45751;51.380;10.326;2022-11-15T02:49:08;7.30;99.90
59881;DHT22;45751;51.380;10.326;2022-11-15T02:51:56;7.30;99.90
59881;DHT22;45751;51.380;10.326;2022-11-15T02:54:42;7.20;99.90
59881;DHT22;45751;51.380;10.326;2022-11-15T02:57:57;7.20;99.90
59881;DHT22;45751;51.380;10.326;2022-11-15T03:00:54;7.20;99.90
59881;DHT22;45751;51.380;10.326;2022-11-15T03:03:54;7.10;99.90
59881;DHT22;45751;51.380;10.326;2022-11-15T03:07:02;7.10;99.90
59881;DHT22;45751;51.380;10.326;2022-11-15T03:10:17;7.10;99.90
59881;DHT22;45751;51.380;10.326;2022-11-15T03:16:27;7.00;99.90
59881;DHT22;45751;51.380;10.326;2022-11-15T03:19:22;7.00;99.90
59881;DHT22;45751;51.380;10.326;2022-11-15T03:22:15;7.10;99.90
59881;DHT22;45751;51.380;10.326;2022-11-15T03:25:06;7.00;99.90
59881;DHT22;45751;51.380;10.326;2022-11-15T03:27:58;7.00;99.90
59881;DHT22;45751;51.380;10.326;2022-11-15T03:30:49;7.00;99.90
59881;DHT22;45751;51.380;10.326;2022-11-15T03:33:37;7.00;99.90
59881;DHT22;45751;51.380;10.326;2022-11-15T03:36:25;7.00;99.90
59881;DHT22;45751;51.380;10.326;2022-11-15T03:39:13;7.00;99.90
59881;DHT22;45751;51.380;10.326;2022-11-15T03:45:03;7.00;99.90
59881;DHT22;45751;51.380;10.326;2022-11-15T03:48:02;7.00;99.90
59881;DHT22;45751;51.380;10.326;2022-11-15T03:50:51;7.10;99.90
59881;DHT22;45751;51.380;10.326;2022-11-15T03:53:37;7.10;99.90
59881;DHT22;45751;51.380;10.326;2022-11-15T03:56:25;7.10;99.90
59881;DHT22;45751;51.380;10.326;2022-11-15T03:59:12;7.10;99.90
59881;DHT22;45751;51.380;10.326;2022-11-15T04:02:00;7.10;99.90
59881;DHT22;45751;51.380;10.326;2022-11-15T04:04:45;7.20;99.90
59881;DHT22;45751;51.380;10.326;2022-11-15T04:07:33;7.20;99.90
59881;DHT22;45751;51.380;10.326;2022-11-15T04:10:20;7.20;99.90
59881;DHT22;45751;51.380;10.326;2022-11-15T04:13:09;7.20;99.90
59881;DHT22;45751;51.380;10.326;2022-11-15T04:15:58;7.20;99.90
59881;DHT22;45751;51.380;10.326;2022-11-15T04:18:46;7.30;99.90
59881;DHT22;45751;51.380;10.326;2022-11-15T04:21:55;7.20;99.90
59881;DHT22;45751;51.380;10.326;2022-11-15T04:25:01;7.20;99.90
59881;DHT22;45751;51.380;10.326;2022-11-15T04:27:48;7.30;99.90
59881;DHT22;45751;51.380;10.326;2022-11-15T04:30:33;7.20;99.90
59881;DHT22;45751;51.380;10.326;2022-11-15T04:33:19;7.20;99.90
59881;DHT22;45751;51.380;10.326;2022-11-15T04:36:06;7.30;99.90
59881;DHT22;45751;51.380;10.326;2022-11-15T04:39:11;7.30;99.90
59881;DHT22;45751;51.380;10.326;2022-11-15T04:42:01;7.30;99.90
59881;DHT22;45751;51.380;10.326;2022-11-15T04:44:48;7.30;99.90
59881;DHT22;45751;51.380;10.326;2022-11-15T04:47:35;7.30;99.90
59881;DHT22;45751;51.380;10.326;2022-11-15T04:50:20;7.30;99.90
59881;DHT22;45751;51.380;10.326;2022-11-15T04:53:08;7.30;99.90
59881;DHT22;45751;51.380;10.326;2022-11-15T04:55:55;7.30;99.90
59881;DHT22;45751;51.380;10.326;2022-11-15T04:58:42;7.30;99.90
59881;DHT22;45751;51.380;10.326;2022-11-15T05:01:29;7.20;99.90
59881;DHT22;45751;51.380;10.326;2022-11-15T05:04:15;7.20;99.90
59881;DHT22;45751;51.380;10.326;2022-11-15T05:07:06;7.20;99.90
59881;DHT22;45751;51.380;10.326;2022-11-15T05:09:52;7.20;99.90
59881;DHT22;45751;51.380;10.326;2022-11-15T05:12:41;7.20;99.90
59881;DHT22;45751;51.380;10.326;2022-11-15T05:15:27;7.20;99.90
59881;DHT22;45751;51.380;10.326;2022-11-15T05:18:15;7.20;99.90
59881;DHT22;45751;51.380;10.326;2022-11-15T05:21:14;7.20;99.90
59881;DHT22;45751;51.380;10.326;2022-11-15T05:24:03;7.10;99.90
59881;DHT22;45751;51.380;10.326;2022-11-15T05:26:49;7.10;99.90
59881;DHT22;45751;51.380;10.326;2022-11-15T05:29:38;7.10;99.90
59881;DHT22;45751;51.380;10.326;2022-11-15T05:32:23;7.10;99.90
59881;DHT22;45751;51.380;10.326;2022-11-15T05:35:22;7.10;99.90
59881;DHT22;45751;51.380;10.326;2022-11-15T05:38:12;7.10;99.90
59881;DHT22;45751;51.380;10.326;2022-11-15T05:41:03;7.10;99.90
59881;DHT22;45751;51.380;10.326;2022-11-15T05:43:51;7.10;99.90
59881;DHT22;45751;51.380;10.326;2022-11-15T05:46:38;7.00;99.90
59881;DHT22;45751;51.380;10.326;2022-11-15T05:49:30;7.00;99.90
59881;DHT22;45751;51.380;10.326;2022-11-15T05:52:19;7.10;99.90
59881;DHT22;45751;51.380;10.326;2022-11-15T05:55:09;7.00;99.90
59881;DHT22;45751;51.380;10.326;2022-11-15T05:57:55;7.00;99.90
59881;DHT22;45751;51.380;10.326;2022-11-15T06:00:42;6.90;99.90
59881;DHT22;45751;51.380;10.326;2022-11-15T06:03:30;6.90;99.90
59881;DHT22;45751;51.380;10.326;2022-11-15T06:06:16;6.90;99.90
59881;DHT22;45751;51.380;10.326;2022-11-15T06:09:05;6.90;99.90
59881;DHT22;45751;51.380;10.326;2022-11-15T06:11:52;6.90;99.90
59881;DHT22;45751;51.380;10.326;2022-11-15T06:14:40;6.90;99.90
59881;DHT22;45751;51.380;10.326;2022-11-15T06:17:25;6.80;99.90
59881;DHT22;45751;51.380;10.326;2022-11-15T06:20:15;6.80;99.90
59881;DHT22;45751;51.380;10.326;2022-11-15T06:23:04;6.80;99.90
59881;DHT22;45751;51.380;10.326;2022-11-15T06:25:52;6.80;99.90
59881;DHT22;45751;51.380;10.326;2022-11-15T06:28:37;6.80;99.90
59881;DHT22;45751;51.380;10.326;2022-11-15T06:31:26;6.80;99.90
59881;DHT22;45751;51.380;10.326;2022-11-15T06:34:11;6.80;99.90
59881;DHT22;45751;51.380;10.326;2022-11-15T06:36:58;6.80;99.90
59881;DHT22;45751;51.380;10.326;2022-11-15T06:39:43;6.80;99.90
59881;DHT22;45751;51.380;10.326;2022-11-15T06:42:30;6.70;99.90
59881;DHT22;45751;51.380;10.326;2022-11-15T06:45:17;6.70;99.90
59881;DHT22;45751;51.380;10.326;2022-11-15T06:48:05;6.80;99.90
59881;DHT22;45751;51.380;10.326;2022-11-15T06:50:56;6.80;99.90
59881;DHT22;45751;51.380;10.326;2022-11-15T06:53:44;6.80;99.90
59881;DHT22;45751;51.380;10.326;2022-11-15T06:56:30;6.80;99.90
59881;DHT22;45751;51.380;10.326;2022-11-15T06:59:18;6.80;99.90
59881;DHT22;45751;51.380;10.326;2022-11-15T07:02:03;6.80;99.90
59881;DHT22;45751;51.380;10.326;2022-11-15T07:04:50;6.80;99.90
59881;DHT22;45751;51.380;10.326;2022-11-15T07:07:36;6.80;99.90
59881;DHT22;45751;51.380;10.326;2022-11-15T07:10:24;6.80;99.90
59881;DHT22;45751;51.380;10.326;2022-11-15T07:13:10;6.70;99.90
59881;DHT22;45751;51.380;10.326;2022-11-15T07:16:04;6.70;99.90
59881;DHT22;45751;51.380;10.326;2022-11-15T07:18:50;6.80;99.90
59881;DHT22;45751;51.380;10.326;2022-11-15T07:21:37;6.80;99.90
59881;DHT22;45751;51.380;10.326;2022-11-15T07:24:24;6.80;99.90
59881;DHT22;45751;51.380;10.326;2022-11-15T07:27:11;6.80;99.90
59881;DHT22;45751;51.380;10.326;2022-11-15T07:29:58;6.80;99.90
59881;DHT22;45751;51.380;10.326;2022-11-15T07:32:45;6.80;99.90
59881;DHT22;45751;51.380;10.326;2022-11-15T07:35:31;6.80;99.90
59881;DHT22;45751;51.380;10.326;2022-11-15T07:38:17;6.90;99.90
59881;DHT22;45751;51.380;10.326;2022-11-15T07:41:07;6.90;99.90
59881;DHT22;45751;51.380;10.326;2022-11-15T07:43:52;7.00;99.90
59881;DHT22;45751;51.380;10.326;2022-11-15T07:46:39;7.00;99.90
59881;DHT22;45751;51.380;10.326;2022-11-15T07:49:25;7.00;99.90
59881;DHT22;45751;51.380;10.326;2022-11-15T07:52:13;7.00;99.90
59881;DHT22;45751;51.380;10.326;2022-11-15T07:55:01;7.10;99.90
59881;DHT22;45751;51.380;10.326;2022-11-15T07:57:46;7.10;99.90
59881;DHT22;45751;51.380;10.326;2022-11-15T08:00:34;7.10;99.90
59881;DHT22;45751;51.380;10.326;2022-11-15T08:03:24;7.20;99.90
59881;DHT22;45751;51.380;10.326;2022-11-15T08:06:09;7.20;99.90
59881;DHT22;45751;51.380;10.326;2022-11-15T08:08:57;7.20;99.90
59881;DHT22;45751;51.380;10.326;2022-11-15T08:11:43;7.30;99.90
59881;DHT22;45751;51.380;10.326;2022-11-15T08:14:30;7.30;99.90
59881;DHT22;45751;51.380;10.326;2022-11-15T08:17:17;7.30;99.90
59881;DHT22;45751;51.380;10.326;2022-11-15T08:20:05;7.30;99.90
59881;DHT22;45751;51.380;10.326;2022-11-15T08:22:50;7.40;99.90
59881;DHT22;45751;51.380;10.326;2022-11-15T08:25:38;7.40;99.90
59881;DHT22;45751;51.380;10.326;2022-11-15T08:28:23;7.40;99.90
59881;DHT22;45751;51.380;10.326;2022-11-15T08:31:16;7.40;99.90
59881;DHT22;45751;51.380;10.326;2022-11-15T08:34:05;7.40;99.90
59881;DHT22;45751;51.380;10.326;2022-11-15T08:36:52;7.40;99.90
59881;DHT22;45751;51.380;10.326;2022-11-15T08:39:37;7.40;99.90
59881;DHT22;45751;51.380;10.326;2022-11-15T08:42:26;7.40;99.90
59881;DHT22;45751;51.380;10.326;2022-11-15T08:45:14;7.40;99.90
59881;DHT22;45751;51.380;10.326;2022-11-15T08:48:02;7.40;99.90
59881;DHT22;45751;51.380;10.326;2022-11-15T08:50:57;7.40;99.90
59881;DHT22;45751;51.380;10.326;2022-11-15T08:53:42;7.50;99.90
59881;DHT22;45751;51.380;10.326;2022-11-15T08:56:30;7.60;99.90
59881;DHT22;45751;51.380;10.326;2022-11-15T08:59:15;7.50;99.90
59881;DHT22;45751;51.380;10.326;2022-11-15T09:02:03;7.50;99.90
59881;DHT22;45751;51.380;10.326;2022-11-15T09:04:48;7.50;99.90
59881;DHT22;45751;51.380;10.326;2022-11-15T09:07:36;7.50;99.90
59881;DHT22;45751;51.380;10.326;2022-11-15T09:10:23;7.60;99.90
59881;DHT22;45751;51.380;10.326;2022-11-15T09:13:11;7.50;99.90
59881;DHT22;45751;51.380;10.326;2022-11-15T09:15:58;7.60;99.90
59881;DHT22;45751;51.380;10.326;2022-11-15T09:18:46;7.60;99.90
59881;DHT22;45751;51.380;10.326;2022-11-15T09:21:31;7.60;99.90
59881;DHT22;45751;51.380;10.326;2022-11-15T09:24:20;7.70;99.90
59881;DHT22;45751;51.380;10.326;2022-11-15T09:27:05;7.70;99.90
59881;DHT22;45751;51.380;10.326;2022-11-15T09:29:54;7.80;99.90
59881;DHT22;45751;51.380;10.326;2022-11-15T09:32:39;7.90;99.90
59881;DHT22;45751;51.380;10.326;2022-11-15T09:35:28;7.90;99.90
59881;DHT22;45751;51.380;10.326;2022-11-15T09:38:13;8.00;99.90
59881;DHT22;45751;51.380;10.326;2022-11-15T09:41:45;7.90;99.90
59881;DHT22;45751;51.380;10.326;2022-11-15T09:45:25;8.00;99.90
59881;DHT22;45751;51.380;10.326;2022-11-15T09:48:03;8.00;99.90
59881;DHT22;45751;51.380;10.326;2022-11-15T09:51:06;8.10;99.90
59881;DHT22;45751;51.380;10.326;2022-11-15T09:53:36;8.20;99.90
59881;DHT22;45751;51.380;10.326;2022-11-15T09:56:31;8.20;99.90
59881;DHT22;45751;51.380;10.326;2022-11-15T10:04:07;8.40;99.90
59881;DHT22;45751;51.380;10.326;2022-11-15T10:06:42;8.30;99.90
59881;DHT22;45751;51.380;10.326;2022-11-15T10:09:16;8.50;99.90
59881;DHT22;45751;51.380;10.326;2022-11-15T10:11:50;8.50;99.90
59881;DHT22;45751;51.380;10.326;2022-11-15T10:14:23;8.60;99.90
59881;DHT22;45751;51.380;10.326;2022-11-15T10:19:46;8.70;99.90
59881;DHT22;45751;51.380;10.326;2022-11-15T10:22:30;8.80;99.90
59881;DHT22;45751;51.380;10.326;2022-11-15T10:27:31;8.90;99.90
59881;DHT22;45751;51.380;10.326;2022-11-15T10:29:58;9.00;99.90
59881;DHT22;45751;51.380;10.326;2022-11-15T10:32:26;9.10;99.90
59881;DHT22;45751;51.380;10.326;2022-11-15T10:34:53;9.10;99.90
59881;DHT22;45751;51.380;10.326;2022-11-15T10:37:30;9.20;99.90
59881;DHT22;45751;51.380;10.326;2022-11-15T10:40:19;9.30;99.90
59881;DHT22;45751;51.380;10.326;2022-11-15T10:42:46;9.30;99.90
59881;DHT22;45751;51.380;10.326;2022-11-15T10:45:29;9.40;99.90
59881;DHT22;45751;51.380;10.326;2022-11-15T10:50:47;9.40;99.90
59881;DHT22;45751;51.380;10.326;2022-11-15T10:55:57;9.50;99.90
59881;DHT22;45751;51.380;10.326;2022-11-15T11:01:10;9.50;99.90
59881;DHT22;45751;51.380;10.326;2022-11-15T11:03:39;9.60;99.90
59881;DHT22;45751;51.380;10.326;2022-11-15T11:06:17;9.60;99.90
59881;DHT22;45751;51.380;10.326;2022-11-15T11:09:03;9.70;99.90
59881;DHT22;45751;51.380;10.326;2022-11-15T11:11:48;9.70;99.90
59881;DHT22;45751;51.380;10.326;2022-11-15T11:20:07;9.90;99.90
59881;DHT22;45751;51.380;10.326;2022-11-15T11:27:57;9.90;99.90
59881;DHT22;45751;51.380;10.326;2022-11-15T11:33:48;10.00;99.90
59881;DHT22;45751;51.380;10.326;2022-11-15T11:36:26;10.00;99.90
59881;DHT22;45751;51.380;10.326;2022-11-15T11:39:41;10.10;99.90
59881;DHT22;45751;51.380;10.326;2022-11-15T11:42:30;10.20;99.90
59881;DHT22;45751;51.380;10.326;2022-11-15T11:45:22;10.30;99.90
59881;DHT22;45751;51.380;10.326;2022-11-15T11:48:13;10.50;99.90
59881;DHT22;45751;51.380;10.326;2022-11-15T11:50:42;10.70;99.90
59881;DHT22;45751;51.380;10.326;2022-11-15T11:55:47;11.00;99.90
59881;DHT22;45751;51.380;10.326;2022-11-15T11:58:26;11.10;99.70
59881;DHT22;45751;51.380;10.326;2022-11-15T12:01:25;11.20;99.00
59881;DHT22;45751;51.380;10.326;2022-11-15T12:06:42;11.50;97.10
59881;DHT22;45751;51.380;10.326;2022-11-15T12:12:05;11.80;96.30
59881;DHT22;45751;51.380;10.326;2022-11-15T12:17:03;12.10;95.10
59881;DHT22;45751;51.380;10.326;2022-11-15T12:19:31;12.30;94.30
59881;DHT22;45751;51.380;10.326;2022-11-15T12:23:13;12.40;93.90
59881;DHT22;45751;51.380;10.326;2022-11-15T12:28:17;12.80;92.10
59881;DHT22;45751;51.380;10.326;2022-11-15T12:33:56;13.00;91.30
59881;DHT22;45751;51.380;10.326;2022-11-15T12:36:38;13.10;90.70
59881;DHT22;45751;51.380;10.326;2022-11-15T12:39:08;13.20;90.60
59881;DHT22;45751;51.380;10.326;2022-11-15T12:41:43;13.20;89.60
59881;DHT22;45751;51.380;10.326;2022-11-15T12:52:07;13.50;86.90
59881;DHT22;45751;51.380;10.326;2022-11-15T12:59:58;13.60;83.60
59881;DHT22;45751;51.380;10.326;2022-11-15T13:02:43;13.60;83.20
59881;DHT22;45751;51.380;10.326;2022-11-15T13:07:58;13.60;83.80
59881;DHT22;45751;51.380;10.326;2022-11-15T13:13:04;13.60;82.90
59881;DHT22;45751;51.380;10.326;2022-11-15T13:15:55;13.60;82.70
59881;DHT22;45751;51.380;10.326;2022-11-15T13:18:31;13.60;82.00
59881;DHT22;45751;51.380;10.326;2022-11-15T13:21:03;13.50;82.90
59881;DHT22;45751;51.380;10.326;2022-11-15T13:23:54;13.40;82.40
59881;DHT22;45751;51.380;10.326;2022-11-15T13:26:22;13.40;82.70
59881;DHT22;45751;51.380;10.326;2022-11-15T13:28:52;13.30;82.70
59881;DHT22;45751;51.380;10.326;2022-11-15T13:31:37;13.20;82.70
59881;DHT22;45751;51.380;10.326;2022-11-15T13:37:27;13.10;83.80
59881;DHT22;45751;51.380;10.326;2022-11-15T13:40:17;13.10;84.20
59881;DHT22;45751;51.380;10.326;2022-11-15T13:42:48;13.00;84.80
59881;DHT22;45751;51.380;10.326;2022-11-15T13:45:17;13.00;84.90
59881;DHT22;45751;51.380;10.326;2022-11-15T13:47:57;13.00;85.70
59881;DHT22;45751;51.380;10.326;2022-11-15T13:50:29;13.00;86.10
59881;DHT22;45751;51.380;10.326;2022-11-15T13:53:03;13.00;85.60
59881;DHT22;45751;51.380;10.326;2022-11-15T13:55:32;13.10;85.90
59881;DHT22;45751;51.380;10.326;2022-11-15T13:58:03;13.10;85.50
59881;DHT22;45751;51.380;10.326;2022-11-15T14:00:41;13.00;84.90
59881;DHT22;45751;51.380;10.326;2022-11-15T14:03:28;13.10;85.20
59881;DHT22;45751;51.380;10.326;2022-11-15T14:08:57;13.20;85.00
59881;DHT22;45751;51.380;10.326;2022-11-15T14:11:24;13.20;85.50
59881;DHT22;45751;51.380;10.326;2022-11-15T14:19:11;13.10;85.50
59881;DHT22;45751;51.380;10.326;2022-11-15T14:22:09;13.10;85.50
59881;DHT22;45751;51.380;10.326;2022-11-15T14:24:37;13.00;86.00
59881;DHT22;45751;51.380;10.326;2022-11-15T14:27:24;13.00;86.10
59881;DHT22;45751;51.380;10.326;2022-11-15T14:29:53;12.90;86.20
59881;DHT22;45751;51.380;10.326;2022-11-15T14:32:24;12.90;86.30
59881;DHT22;45751;51.380;10.326;2022-11-15T14:35:00;12.80;86.60
59881;DHT22;45751;51.380;10.326;2022-11-15T14:37:30;12.80;86.90
59881;DHT22;45751;51.380;10.326;2022-11-15T14:40:03;12.70;87.50
59881;DHT22;45751;51.380;10.326;2022-11-15T14:42:32;12.60;88.10
59881;DHT22;45751;51.380;10.326;2022-11-15T14:44:59;12.60;88.70
59881;DHT22;45751;51.380;10.326;2022-11-15T14:47:26;12.50;89.30
59881;DHT22;45751;51.380;10.326;2022-11-15T14:49:55;12.50;90.00
59881;DHT22;45751;51.380;10.326;2022-11-15T14:52:28;12.40;90.20
59881;DHT22;45751;51.380;10.326;2022-11-15T14:55:04;12.40;90.40
59881;DHT22;45751;51.380;10.326;2022-11-15T14:57:39;12.40;90.60
59881;DHT22;45751;51.380;10.326;2022-11-15T15:00:06;12.40;90.80
59881;DHT22;45751;51.380;10.326;2022-11-15T15:02:40;12.30;90.90
59881;DHT22;45751;51.380;10.326;2022-11-15T15:05:15;12.30;91.10
59881;DHT22;45751;51.380;10.326;2022-11-15T15:07:46;12.20;91.30
59881;DHT22;45751;51.380;10.326;2022-11-15T15:10:15;12.20;91.30
59881;DHT22;45751;51.380;10.326;2022-11-15T15:13:05;12.20;91.30
59881;DHT22;45751;51.380;10.326;2022-11-15T15:15:35;12.20;91.50
59881;DHT22;45751;51.380;10.326;2022-11-15T15:18:04;12.20;91.70
59881;DHT22;45751;51.380;10.326;2022-11-15T15:20:32;12.10;91.80
59881;DHT22;45751;51.380;10.326;2022-11-15T15:23:02;12.10;91.90
59881;DHT22;45751;51.380;10.326;2022-11-15T15:25:34;12.10;92.00
59881;DHT22;45751;51.380;10.326;2022-11-15T15:28:04;12.00;92.20
59881;DHT22;45751;51.380;10.326;2022-11-15T15:30:31;12.00;92.20
59881;DHT22;45751;51.380;10.326;2022-11-15T15:32:59;12.00;92.30
59881;DHT22;45751;51.380;10.326;2022-11-15T15:35:31;11.90;92.40
59881;DHT22;45751;51.380;10.326;2022-11-15T15:38:00;11.90;92.40
59881;DHT22;45751;51.380;10.326;2022-11-15T15:40:29;11.90;92.60
59881;DHT22;45751;51.380;10.326;2022-11-15T15:42:58;11.80;92.90
59881;DHT22;45751;51.380;10.326;2022-11-15T15:45:26;11.80;92.90
59881;DHT22;45751;51.380;10.326;2022-11-15T15:47:55;11.70;92.90
59881;DHT22;45751;51.380;10.326;2022-11-15T15:50:28;11.70;92.70
59881;DHT22;45751;51.380;10.326;2022-11-15T15:53:02;11.70;92.80
59881;DHT22;45751;51.380;10.326;2022-11-15T15:55:33;11.70;92.80
59881;DHT22;45751;51.380;10.326;2022-11-15T15:58:01;11.70;92.80
59881;DHT22;45751;51.380;10.326;2022-11-15T16:00:28;11.60;92.90
59881;DHT22;45751;51.380;10.326;2022-11-15T16:02:57;11.60;93.10
59881;DHT22;45751;51.380;10.326;2022-11-15T16:05:25;11.50;93.20
59881;DHT22;45751;51.380;10.326;2022-11-15T16:07:52;11.60;93.30
59881;DHT22;45751;51.380;10.326;2022-11-15T16:10:24;11.50;93.30
59881;DHT22;45751;51.380;10.326;2022-11-15T16:12:56;11.50;93.40
59881;DHT22;45751;51.380;10.326;2022-11-15T16:15:25;11.50;93.60
59881;DHT22;45751;51.380;10.326;2022-11-15T16:17:58;11.50;93.60
59881;DHT22;45751;51.380;10.326;2022-11-15T16:22:58;11.40;93.80
59881;DHT22;45751;51.380;10.326;2022-11-15T16:25:48;11.30;93.80
59881;DHT22;45751;51.380;10.326;2022-11-15T16:28:17;11.30;94.10
59881;DHT22;45751;51.380;10.326;2022-11-15T16:30:46;11.40;94.10
59881;DHT22;45751;51.380;10.326;2022-11-15T16:33:23;11.30;94.20
59881;DHT22;45751;51.380;10.326;2022-11-15T16:35:50;11.30;94.50
59881;DHT22;45751;51.380;10.326;2022-11-15T16:38:17;11.20;94.50
59881;DHT22;45751;51.380;10.326;2022-11-15T16:40:44;11.20;94.60
59881;DHT22;45751;51.380;10.326;2022-11-15T16:43:15;11.20;94.60
59881;DHT22;45751;51.380;10.326;2022-11-15T16:45:42;11.20;94.60
59881;DHT22;45751;51.380;10.326;2022-11-15T16:48:22;11.20;94.60
59881;DHT22;45751;51.380;10.326;2022-11-15T16:50:56;11.20;94.70
59881;DHT22;45751;51.380;10.326;2022-11-15T16:53:25;11.20;94.80
59881;DHT22;45751;51.380;10.326;2022-11-15T16:55:53;11.20;94.90
59881;DHT22;45751;51.380;10.326;2022-11-15T16:58:20;11.20;95.10
59881;DHT22;45751;51.380;10.326;2022-11-15T17:00:51;11.10;95.10
59881;DHT22;45751;51.380;10.326;2022-11-15T17:03:20;11.10;95.30
59881;DHT22;45751;51.380;10.326;2022-11-15T17:05:47;11.10;95.40
59881;DHT22;45751;51.380;10.326;2022-11-15T17:08:15;11.10;95.40
59881;DHT22;45751;51.380;10.326;2022-11-15T17:10:42;11.00;95.50
59881;DHT22;45751;51.380;10.326;2022-11-15T17:13:12;11.00;95.70
59881;DHT22;45751;51.380;10.326;2022-11-15T17:15:40;10.90;95.80
59881;DHT22;45751;51.380;10.326;2022-11-15T17:18:10;10.90;95.80
59881;DHT22;45751;51.380;10.326;2022-11-15T17:20:39;10.90;95.90
59881;DHT22;45751;51.380;10.326;2022-11-15T17:23:14;10.90;95.90
59881;DHT22;45751;51.380;10.326;2022-11-15T17:25:43;10.90;95.90
59881;DHT22;45751;51.380;10.326;2022-11-15T17:28:10;10.90;95.90
59881;DHT22;45751;51.380;10.326;2022-11-15T17:30:43;10.80;95.90
59881;DHT22;45751;51.380;10.326;2022-11-15T17:33:11;10.90;96.10
59881;DHT22;45751;51.380;10.326;2022-11-15T17:35:39;10.80;96.10
59881;DHT22;45751;51.380;10.326;2022-11-15T17:38:06;10.80;96.20
59881;DHT22;45751;51.380;10.326;2022-11-15T17:40:35;10.70;96.30
59881;DHT22;45751;51.380;10.326;2022-11-15T17:43:04;10.70;96.30
59881;DHT22;45751;51.380;10.326;2022-11-15T17:45:31;10.70;96.40
59881;DHT22;45751;51.380;10.326;2022-11-15T17:48:01;10.60;96.60
59881;DHT22;45751;51.380;10.326;2022-11-15T17:50:28;10.60;96.70
59881;DHT22;45751;51.380;10.326;2022-11-15T17:52:55;10.60;96.90
59881;DHT22;45751;51.380;10.326;2022-11-15T17:55:24;10.60;97.00
59881;DHT22;45751;51.380;10.326;2022-11-15T17:57:51;10.60;97.10
59881;DHT22;45751;51.380;10.326;2022-11-15T18:00:18;10.50;97.20
59881;DHT22;45751;51.380;10.326;2022-11-15T18:02:48;10.50;97.40
59881;DHT22;45751;51.380;10.326;2022-11-15T18:05:16;10.50;97.40
59881;DHT22;45751;51.380;10.326;2022-11-15T18:07:43;10.50;97.50
59881;DHT22;45751;51.380;10.326;2022-11-15T18:10:12;10.50;97.40
59881;DHT22;45751;51.380;10.326;2022-11-15T18:12:40;10.50;97.40
59881;DHT22;45751;51.380;10.326;2022-11-15T18:15:07;10.50;97.40
59881;DHT22;45751;51.380;10.326;2022-11-15T18:17:37;10.50;97.40
59881;DHT22;45751;51.380;10.326;2022-11-15T18:20:05;10.50;97.40
59881;DHT22;45751;51.380;10.326;2022-11-15T18:22:32;10.50;97.50
59881;DHT22;45751;51.380;10.326;2022-11-15T18:24:58;10.50;97.90
59881;DHT22;45751;51.380;10.326;2022-11-15T18:27:27;10.50;97.40
59881;DHT22;45751;51.380;10.326;2022-11-15T18:29:57;10.50;97.30
59881;DHT22;45751;51.380;10.326;2022-11-15T18:32:24;10.60;97.30
59881;DHT22;45751;51.380;10.326;2022-11-15T18:34:51;10.60;97.20
59881;DHT22;45751;51.380;10.326;2022-11-15T18:37:20;10.50;97.20